Time;durP1;ratioP1;P1;durP2;ratioP2;P2;SDS_P1;SDS_P2;PMS_P1;PMS_P2;Temp;Humidity;BMP_temperature;BMP_pressure;BME280_temperature;BME280_humidity;BME280_pressure;Samples;Min_cycle;Max_cycle;Signal;HPM_P1;HPM_P2
2021/06/22 00:01:18;;;;;;;6.93;5.22;;;19.90;99.90;;;;;;4188577;28;20094;-58
2021/06/22 00:03:19;;;;;;;7.20;5.20;;;19.80;99.90;;;;;;4189724;28;20044;-58
2021/06/22 00:05:21;;;;;;;10.18;5.10;;;19.80;99.90;;;;;;4188727;28;20373;-58
2021/06/22 00:07:22;;;;;;;10.95;6.20;;;19.60;99.90;;;;;;4189710;28;20033;-58
2021/06/22 00:09:23;;;;;;;6.63;5.07;;;19.50;99.90;;;;;;4188730;28;20049;-57
2021/06/22 00:11:24;;;;;;;13.65;6.57;;;19.40;99.90;;;;;;4188431;28;20055;-57
2021/06/22 00:13:26;;;;;;;5.80;4.55;;;19.40;99.90;;;;;;4188317;28;20024;-59
2021/06/22 00:15:28;;;;;;;9.20;4.75;;;19.40;99.90;;;;;;4189132;28;20028;-57
2021/06/22 00:17:30;;;;;;;8.48;5.30;;;19.40;99.90;;;;;;4188501;28;20074;-57
2021/06/22 00:19:31;;;;;;;7.47;5.47;;;19.40;99.90;;;;;;4189003;28;20029;-57
2021/06/22 00:21:32;;;;;;;7.55;5.03;;;19.40;99.90;;;;;;4188696;28;20094;-58
2021/06/22 00:23:33;;;;;;;6.38;4.75;;;19.40;99.90;;;;;;4188959;28;20113;-58
2021/06/22 00:25:34;;;;;;;10.02;5.40;;;19.40;99.90;;;;;;4189304;28;20094;-58
2021/06/22 00:27:36;;;;;;;6.15;5.30;;;19.40;99.90;;;;;;4188522;28;20115;-58
2021/06/22 00:29:37;;;;;;;9.65;5.60;;;19.30;99.90;;;;;;4192460;28;20078;-57
2021/06/22 00:31:38;;;;;;;11.45;6.15;;;19.30;99.90;;;;;;4191850;28;20032;-57
2021/06/22 00:33:40;;;;;;;11.32;5.60;;;19.30;99.90;;;;;;4192036;28;20028;-59
2021/06/22 00:35:41;;;;;;;9.95;5.68;;;19.30;99.90;;;;;;4191817;28;20074;-58
2021/06/22 00:37:43;;;;;;;9.95;5.03;;;19.30;99.90;;;;;;4191618;28;20058;-58
2021/06/22 00:39:45;;;;;;;11.85;5.80;;;19.30;99.90;;;;;;4191751;28;20390;-59
2021/06/22 00:41:46;;;;;;;12.63;6.35;;;19.30;99.90;;;;;;4191951;28;20492;-58
2021/06/22 00:43:48;;;;;;;12.70;6.63;;;19.30;99.90;;;;;;4192229;28;20117;-56
2021/06/22 00:45:49;;;;;;;13.80;6.63;;;19.20;99.90;;;;;;4192543;28;20041;-56
2021/06/22 00:47:50;;;;;;;11.45;6.22;;;19.30;99.90;;;;;;4192165;28;20815;-56
2021/06/22 00:49:52;;;;;;;10.60;6.60;;;19.30;99.90;;;;;;4191677;28;20564;-58
2021/06/22 00:51:53;;;;;;;11.00;5.45;;;19.30;99.90;;;;;;4192246;28;20317;-58
2021/06/22 00:53:55;;;;;;;13.50;7.03;;;19.40;99.90;;;;;;4191378;28;20052;-58
2021/06/22 00:55:57;;;;;;;10.07;6.40;;;19.40;99.90;;;;;;4192196;28;20420;-56
2021/06/22 00:58:03;;;;;;;8.70;6.00;;;19.40;99.90;;;;;;4190800;28;20569;-58
2021/06/22 01:00:10;;;;;;;8.60;5.50;;;19.40;99.90;;;;;;4191956;28;20098;-56
2021/06/22 01:02:11;;;;;;;11.38;5.43;;;19.40;99.90;;;;;;4190902;28;20500;-58
2021/06/22 01:04:12;;;;;;;7.35;5.40;;;19.40;99.90;;;;;;4191363;28;20086;-58
2021/06/22 01:06:13;;;;;;;10.32;5.25;;;19.40;99.90;;;;;;4191109;28;20032;-56
2021/06/22 01:08:15;;;;;;;9.52;5.22;;;19.40;99.90;;;;;;4191290;28;20085;-58
2021/06/22 01:10:16;;;;;;;8.68;5.63;;;19.40;99.90;;;;;;4191298;28;20110;-58
2021/06/22 01:12:17;;;;;;;16.58;5.57;;;19.40;99.90;;;;;;4191643;28;20045;-58
2021/06/22 01:14:18;;;;;;;7.40;4.60;;;19.40;99.90;;;;;;4191585;28;20125;-56
2021/06/22 01:16:24;;;;;;;7.70;4.88;;;19.40;99.90;;;;;;4191884;28;20082;-58
2021/06/22 01:18:25;;;;;;;8.15;5.00;;;19.40;99.90;;;;;;4191312;28;20488;-58
2021/06/22 01:20:31;;;;;;;12.82;5.43;;;19.50;99.90;;;;;;4191827;28;20067;-57
2021/06/22 01:22:32;;;;;;;9.35;4.97;;;19.50;99.90;;;;;;4191444;28;20114;-58
2021/06/22 01:24:34;;;;;;;11.90;6.25;;;19.40;99.90;;;;;;4191449;28;20078;-57
2021/06/22 01:26:37;;;;;;;6.60;4.72;;;19.40;99.90;;;;;;4191532;28;20033;-56
2021/06/22 01:28:40;;;;;;;10.60;5.53;;;19.40;99.90;;;;;;4191109;28;20044;-58
2021/06/22 01:30:42;;;;;;;7.93;5.10;;;19.40;99.90;;;;;;4191631;28;20037;-58
2021/06/22 01:32:43;;;;;;;10.43;5.72;;;19.30;99.90;;;;;;4191114;28;20041;-58
2021/06/22 01:34:44;;;;;;;5.63;5.03;;;19.20;99.90;;;;;;4191711;28;20086;-58
2021/06/22 01:36:46;;;;;;;5.57;4.95;;;19.10;99.90;;;;;;4190955;28;20094;-56
2021/06/22 01:38:47;;;;;;;10.73;5.28;;;19.10;99.90;;;;;;4190872;28;20034;-53
2021/06/22 01:40:50;;;;;;;7.72;5.45;;;19.00;99.90;;;;;;4190012;28;20033;-57
2021/06/22 01:42:52;;;;;;;10.43;6.20;;;18.90;99.90;;;;;;4191288;28;20024;-57
2021/06/22 01:44:54;;;;;;;6.93;5.47;;;18.90;99.90;;;;;;4190603;28;20438;-57
2021/06/22 01:46:55;;;;;;;13.10;6.80;;;18.80;99.90;;;;;;4191496;28;20040;-55
2021/06/22 01:48:56;;;;;;;12.48;8.63;;;18.70;99.90;;;;;;4190504;28;20044;-57
2021/06/22 01:50:58;;;;;;;9.88;7.18;;;18.70;99.90;;;;;;4191804;28;20025;-58
2021/06/22 01:52:59;;;;;;;9.18;6.63;;;18.60;99.90;;;;;;4190875;28;20125;-57
2021/06/22 01:55:33;;;;;;;9.82;5.57;;;18.50;99.90;;;;;;4191253;28;20041;-59
2021/06/22 01:57:22;;;;;;;11.35;6.28;;;18.40;99.90;;;;;;4190652;28;20074;-57
2021/06/22 01:59:24;;;;;;;8.90;5.82;;;18.40;99.90;;;;;;4191159;28;20029;-56
2021/06/22 02:01:25;;;;;;;8.70;5.90;;;18.30;99.90;;;;;;4190251;28;20101;-57
2021/06/22 02:03:28;;;;;;;10.00;5.80;;;18.30;99.90;;;;;;4190728;28;20040;-58
2021/06/22 02:05:30;;;;;;;6.30;5.55;;;18.20;99.90;;;;;;4190554;28;20024;-57
2021/06/22 02:07:31;;;;;;;8.57;6.53;;;18.20;99.90;;;;;;4190168;28;20028;-56
2021/06/22 02:09:32;;;;;;;9.40;6.22;;;18.10;99.90;;;;;;4191052;28;20519;-58
2021/06/22 02:11:33;;;;;;;13.55;7.53;;;18.00;99.90;;;;;;4190105;28;20040;-58
2021/06/22 02:13:35;;;;;;;8.50;6.40;;;18.00;99.90;;;;;;4190661;28;20048;-58
2021/06/22 02:15:36;;;;;;;9.27;6.82;;;17.90;99.90;;;;;;4190278;28;20029;-58
2021/06/22 02:17:38;;;;;;;10.27;6.10;;;17.90;99.90;;;;;;4190591;28;20053;-58
2021/06/22 02:19:39;;;;;;;7.88;6.30;;;18.00;99.90;;;;;;4190599;28;20435;-58
2021/06/22 02:21:40;;;;;;;10.93;6.95;;;18.10;99.90;;;;;;4191245;28;20458;-59
2021/06/22 02:23:41;;;;;;;9.77;6.55;;;18.10;99.90;;;;;;4189895;28;20435;-56
2021/06/22 02:25:42;;;;;;;7.40;5.97;;;18.10;99.90;;;;;;4190769;28;20036;-59
2021/06/22 02:27:44;;;;;;;15.20;7.55;;;18.10;99.90;;;;;;4190108;28;20036;-54
2021/06/22 02:29:45;;;;;;;12.50;6.25;;;18.20;99.90;;;;;;4190307;28;20037;-57
2021/06/22 02:31:46;;;;;;;8.57;5.50;;;18.20;99.90;;;;;;4190527;28;20040;-56
2021/06/22 02:33:47;;;;;;;10.90;6.47;;;18.30;99.90;;;;;;4190186;28;20101;-59
2021/06/22 02:35:48;;;;;;;12.15;6.38;;;18.30;99.90;;;;;;4190764;28;20110;-57
2021/06/22 02:37:51;;;;;;;11.95;7.38;;;18.30;99.90;;;;;;4189937;28;20090;-55
2021/06/22 02:39:53;;;;;;;10.75;7.13;;;18.40;99.90;;;;;;4190153;28;20489;-57
2021/06/22 02:41:54;;;;;;;14.10;7.55;;;18.40;99.90;;;;;;4189504;28;20435;-56
2021/06/22 02:43:56;;;;;;;11.82;6.90;;;18.40;99.90;;;;;;4190680;28;20141;-56
2021/06/22 02:45:57;;;;;;;9.05;6.38;;;18.40;99.90;;;;;;4189398;28;20024;-58
2021/06/22 02:47:58;;;;;;;10.60;5.85;;;18.50;99.90;;;;;;4190622;28;20048;-58
2021/06/22 02:49:59;;;;;;;10.88;5.53;;;18.60;99.90;;;;;;4190264;28;20040;-57
2021/06/22 02:52:02;;;;;;;8.93;5.18;;;18.80;99.90;;;;;;4189746;28;20098;-57
2021/06/22 02:54:03;;;;;;;8.95;6.00;;;19.00;99.90;;;;;;4188995;28;20588;-58
2021/06/22 02:56:05;;;;;;;11.52;5.50;;;19.10;99.90;;;;;;4189601;28;20086;-56
2021/06/22 02:58:07;;;;;;;5.97;4.90;;;19.20;99.90;;;;;;4189889;28;20729;-57
2021/06/22 03:00:09;;;;;;;7.95;5.43;;;19.40;99.90;;;;;;4190001;28;20439;-57
2021/06/22 03:02:10;;;;;;;10.82;5.15;;;19.40;99.90;;;;;;4189199;28;20102;-55
2021/06/22 03:04:11;;;;;;;9.50;5.20;;;19.40;99.90;;;;;;4188013;28;20825;-55
2021/06/22 03:06:12;;;;;;;8.20;4.65;;;19.40;99.90;;;;;;4190157;28;20041;-58
2021/06/22 03:08:13;;;;;;;5.70;4.68;;;19.40;99.90;;;;;;4189648;28;20029;-58
2021/06/22 03:10:17;;;;;;;13.02;7.15;;;19.60;99.90;;;;;;4189625;28;20386;-56
2021/06/22 03:12:18;;;;;;;12.15;6.55;;;19.70;99.90;;;;;;4189479;28;20447;-57
2021/06/22 03:14:21;;;;;;;11.38;7.30;;;19.80;99.90;;;;;;4189429;28;20840;-56
2021/06/22 03:16:22;;;;;;;13.18;6.80;;;19.90;99.90;;;;;;4189348;28;20029;-58
2021/06/22 03:18:23;;;;;;;11.82;6.15;;;20.10;99.90;;;;;;4189845;28;20021;-56
2021/06/22 03:20:24;;;;;;;14.57;7.60;;;20.30;99.90;;;;;;4189507;28;20033;-58
2021/06/22 03:22:25;;;;;;;13.77;6.90;;;20.60;99.90;;;;;;4189590;28;20056;-59
2021/06/22 03:24:26;;;;;;;10.23;7.05;;;21.00;99.90;;;;;;4189148;28;20040;-57
2021/06/22 03:26:28;;;;;;;9.80;7.18;;;21.30;99.90;;;;;;4189994;28;20040;-59
2021/06/22 03:28:29;;;;;;;11.00;6.47;;;21.40;99.90;;;;;;4189377;28;20028;-55
2021/06/22 03:30:30;;;;;;;12.35;5.55;;;21.50;99.90;;;;;;4188802;28;20032;-58
2021/06/22 03:32:32;;;;;;;11.77;5.95;;;21.60;99.90;;;;;;4188831;28;20090;-55
2021/06/22 03:34:34;;;;;;;14.75;6.35;;;21.60;99.90;;;;;;4188684;28;20024;-56
2021/06/22 03:36:36;;;;;;;14.90;5.97;;;21.70;99.90;;;;;;4189090;28;20739;-57
2021/06/22 03:38:37;;;;;;;14.82;6.50;;;21.60;99.90;;;;;;4188815;28;20025;-58
2021/06/22 03:40:38;;;;;;;11.73;6.55;;;21.60;99.90;;;;;;4189180;28;20058;-57
2021/06/22 03:42:39;;;;;;;7.68;5.50;;;21.60;99.90;;;;;;4188725;28;20052;-58
2021/06/22 03:44:40;;;;;;;12.82;7.57;;;21.90;99.90;;;;;;4189508;28;20037;-58
2021/06/22 03:46:42;;;;;;;10.10;6.88;;;21.80;99.90;;;;;;4188894;28;20479;-57
2021/06/22 03:48:45;;;;;;;12.43;6.32;;;21.70;99.90;;;;;;4189281;28;20033;-56
2021/06/22 03:50:46;;;;;;;14.02;7.30;;;21.90;99.90;;;;;;4189197;28;20830;-57
2021/06/22 03:52:47;;;;;;;11.90;6.47;;;22.30;99.90;;;;;;4189221;28;20036;-57
2021/06/22 03:54:48;;;;;;;16.52;7.15;;;22.60;99.90;;;;;;4188261;28;20024;-59
2021/06/22 03:56:50;;;;;;;14.85;6.65;;;22.80;99.90;;;;;;4188819;28;20028;-59
2021/06/22 03:58:51;;;;;;;9.38;6.32;;;23.10;99.90;;;;;;4188191;28;20058;-58
2021/06/22 04:00:52;;;;;;;13.65;5.97;;;23.70;99.90;;;;;;4188557;28;20558;-58
2021/06/22 04:02:56;;;;;;;13.52;5.63;;;23.90;99.90;;;;;;4187825;28;20102;-59
2021/06/22 04:04:57;;;;;;;10.27;6.28;;;24.10;99.90;;;;;;4187800;28;20561;-59
2021/06/22 04:06:58;;;;;;;12.00;6.95;;;24.00;99.90;;;;;;4187054;28;20036;-58
2021/06/22 04:09:00;;;;;;;10.65;6.97;;;23.80;99.90;;;;;;4188257;28;20040;-59
2021/06/22 04:11:01;;;;;;;10.13;5.95;;;23.80;99.90;;;;;;4189102;28;20066;-59
2021/06/22 04:13:02;;;;;;;11.90;6.97;;;23.90;99.90;;;;;;4188471;28;20030;-57
2021/06/22 04:15:04;;;;;;;11.30;5.95;;;24.10;99.90;;;;;;4188837;28;20037;-58
2021/06/22 04:17:05;;;;;;;14.40;5.80;;;24.10;99.90;;;;;;4188207;28;20036;-58
2021/06/22 04:19:06;;;;;;;10.18;5.90;;;24.10;99.90;;;;;;4188879;28;20033;-59
2021/06/22 04:21:08;;;;;;;10.73;6.50;;;24.30;99.90;;;;;;4187852;28;20029;-59
2021/06/22 04:23:09;;;;;;;9.93;6.32;;;24.30;99.90;;;;;;4188744;28;20093;-58
2021/06/22 04:25:11;;;;;;;30.75;8.98;;;24.50;99.90;;;;;;4187607;28;20473;-57
2021/06/22 04:27:12;;;;;;;12.57;6.78;;;24.50;99.90;;;;;;4188871;28;20033;-58
2021/06/22 04:29:14;;;;;;;15.50;6.70;;;24.50;99.90;;;;;;4188615;28;20086;-57
2021/06/22 04:31:15;;;;;;;17.50;5.93;;;24.70;99.90;;;;;;4196171;28;20142;-63
2021/06/22 04:33:16;;;;;;;12.93;5.55;;;25.20;99.90;;;;;;4205195;28;20399;-59
2021/06/22 04:35:17;;;;;;;14.45;5.63;;;25.60;99.90;;;;;;4204913;28;20457;-57
2021/06/22 04:37:19;;;;;;;9.18;6.47;;;25.70;99.90;;;;;;4204826;28;20028;-58
2021/06/22 04:39:20;;;;;;;13.45;6.18;;;25.70;99.90;;;;;;4191814;28;20110;-55
2021/06/22 04:41:22;;;;;;;15.82;8.52;;;26.20;99.90;;;;;;4188224;28;20577;-58
2021/06/22 04:43:24;;;;;;;17.85;7.15;;;26.50;99.90;;;;;;4186570;28;20562;-59
2021/06/22 04:45:25;;;;;;;16.13;7.60;;;27.10;99.90;;;;;;4188178;28;20118;-58
2021/06/22 04:47:26;;;;;;;15.63;7.13;;;27.40;99.90;;;;;;4187602;28;20538;-58
2021/06/22 04:49:27;;;;;;;16.50;7.45;;;27.40;99.90;;;;;;4188371;28;20040;-58
2021/06/22 04:51:28;;;;;;;14.32;6.93;;;27.10;99.90;;;;;;4187551;28;20089;-57
2021/06/22 04:53:30;;;;;;;16.40;7.53;;;26.80;99.90;;;;;;4188648;28;20037;-58
2021/06/22 04:55:31;;;;;;;13.23;7.43;;;26.60;99.90;;;;;;4187347;28;20033;-57
2021/06/22 04:57:32;;;;;;;10.90;6.43;;;26.70;99.90;;;;;;4200567;28;20125;-58
2021/06/22 04:59:34;;;;;;;17.08;6.63;;;26.20;99.90;;;;;;4204637;28;20081;-58
2021/06/22 05:01:37;;;;;;;14.85;6.93;;;26.30;99.90;;;;;;4203971;28;20028;-57
2021/06/22 05:03:38;;;;;;;9.88;5.80;;;25.90;99.90;;;;;;4192955;28;20745;-58
2021/06/22 05:05:40;;;;;;;12.13;6.82;;;25.10;99.90;;;;;;4188427;28;20041;-57
2021/06/22 05:07:42;;;;;;;8.32;5.40;;;24.50;99.90;;;;;;4188195;28;20140;-59
2021/06/22 05:09:43;;;;;;;12.52;6.00;;;24.20;99.90;;;;;;4188228;28;20056;-58
2021/06/22 05:11:45;;;;;;;9.45;5.63;;;24.10;99.90;;;;;;4188052;28;20049;-59
2021/06/22 05:13:46;;;;;;;9.05;5.25;;;24.10;99.90;;;;;;4188590;28;20169;-59
2021/06/22 05:15:47;;;;;;;7.07;4.68;;;24.30;99.90;;;;;;4191422;28;20415;-58
2021/06/22 05:17:48;;;;;;;11.73;5.50;;;24.60;99.90;;;;;;4190540;28;20042;-59
2021/06/22 05:19:49;;;;;;;9.88;5.47;;;25.30;99.90;;;;;;4191264;28;20028;-59
2021/06/22 05:21:51;;;;;;;6.50;4.30;;;25.70;99.90;;;;;;4190794;28;20032;-59
2021/06/22 05:23:52;;;;;;;11.75;5.25;;;26.30;99.90;;;;;;4191182;28;20358;-59
2021/06/22 05:25:53;;;;;;;9.02;4.57;;;27.20;99.90;;;;;;4189992;28;20037;-59
2021/06/22 05:27:54;;;;;;;8.15;4.40;;;27.80;99.90;;;;;;4191271;28;20081;-57
2021/06/22 05:29:55;;;;;;;6.72;4.80;;;28.10;99.90;;;;;;4190312;28;20036;-59
2021/06/22 05:31:57;;;;;;;11.27;4.95;;;28.20;99.90;;;;;;4191621;28;20126;-59
2021/06/22 05:33:58;;;;;;;9.70;5.60;;;28.30;99.90;;;;;;4190584;28;20521;-59
2021/06/22 05:35:59;;;;;;;16.40;9.20;;;28.30;99.90;;;;;;4190652;28;20090;-60
2021/06/22 05:38:01;;;;;;;15.20;9.80;;;27.80;99.90;;;;;;4190143;28;20036;-59
2021/06/22 05:40:02;;;;;;;11.07;5.72;;;26.80;99.90;;;;;;4190829;28;20150;-58
2021/06/22 05:42:04;;;;;;;11.40;6.05;;;26.10;99.90;;;;;;4190367;28;20053;-59
2021/06/22 05:44:06;;;;;;;8.93;4.60;;;25.70;99.90;;;;;;4190149;28;20075;-58
2021/06/22 05:46:07;;;;;;;11.80;6.00;;;25.60;99.90;;;;;;4191043;28;20106;-58
2021/06/22 05:48:08;;;;;;;6.65;5.43;;;25.70;99.90;;;;;;4190071;28;20042;-59
2021/06/22 05:50:10;;;;;;;11.02;5.18;;;25.80;99.90;;;;;;4190382;28;20040;-58
2021/06/22 05:52:11;;;;;;;13.18;5.85;;;25.80;99.90;;;;;;4190335;28;20078;-59
2021/06/22 05:54:13;;;;;;;11.38;6.97;;;25.60;99.90;;;;;;4190879;28;20029;-59
2021/06/22 05:56:14;;;;;;;10.20;6.25;;;25.30;99.90;;;;;;4190401;28;20090;-59
2021/06/22 05:58:15;;;;;;;7.28;5.18;;;25.00;99.90;;;;;;4191448;28;20032;-59
2021/06/22 06:00:18;;;;;;;7.55;5.13;;;25.20;99.90;;;;;;4189843;28;20093;-59
2021/06/22 06:02:19;;;;;;;10.13;5.72;;;25.90;99.90;;;;;;4190308;28;20532;-59
2021/06/22 06:04:20;;;;;;;10.43;5.47;;;26.30;99.90;;;;;;4188735;28;20117;-59
2021/06/22 06:06:22;;;;;;;8.55;5.25;;;26.50;99.90;;;;;;4190724;28;20760;-59
2021/06/22 06:08:23;;;;;;;16.83;5.70;;;26.50;99.90;;;;;;4190055;28;20032;-59
2021/06/22 06:10:25;;;;;;;8.63;5.22;;;26.60;99.90;;;;;;4188622;28;20040;-59
2021/06/22 06:12:26;;;;;;;11.90;5.40;;;26.50;99.90;;;;;;4189910;28;20106;-59
2021/06/22 06:14:27;;;;;;;9.30;5.68;;;26.40;99.90;;;;;;4190055;28;20082;-60
2021/06/22 06:16:29;;;;;;;9.15;4.93;;;26.20;99.90;;;;;;4190062;28;20431;-59
2021/06/22 06:18:30;;;;;;;9.85;5.68;;;25.90;99.90;;;;;;4190027;28;20102;-59
2021/06/22 06:20:31;;;;;;;9.00;5.45;;;25.80;99.90;;;;;;4190235;28;20512;-59
2021/06/22 06:22:34;;;;;;;11.20;5.65;;;25.90;99.90;;;;;;4189932;28;20044;-59
2021/06/22 06:24:35;;;;;;;9.73;5.55;;;26.10;99.90;;;;;;4190255;28;20090;-60
2021/06/22 06:26:55;;;;;;;10.32;5.13;;;25.90;99.90;;;;;;4189168;28;20044;-59
2021/06/22 06:29:06;;;;;;;10.07;5.68;;;26.20;99.90;;;;;;4189997;28;20036;-59
2021/06/22 06:31:07;;;;;;;13.85;8.73;;;26.30;99.90;;;;;;4189597;28;20028;-59
2021/06/22 06:33:09;;;;;;;13.13;6.90;;;25.90;99.90;;;;;;4190377;28;20042;-59
2021/06/22 06:35:11;;;;;;;14.70;6.85;;;26.00;99.90;;;;;;4189319;28;20070;-59
2021/06/22 06:37:12;;;;;;;7.43;5.28;;;26.00;99.90;;;;;;4190306;28;20029;-60
2021/06/22 06:39:13;;;;;;;8.80;5.25;;;25.90;99.90;;;;;;4188806;28;20040;-59
2021/06/22 06:41:14;;;;;;;12.30;6.32;;;25.80;99.90;;;;;;4190251;28;20122;-60
2021/06/22 06:43:15;;;;;;;12.35;6.13;;;25.70;99.90;;;;;;4189196;28;20040;-59
2021/06/22 06:45:17;;;;;;;8.13;4.55;;;25.80;99.90;;;;;;4189718;28;20082;-59
2021/06/22 06:47:19;;;;;;;6.18;4.90;;;25.80;99.90;;;;;;4189570;28;20033;-59
2021/06/22 06:49:20;;;;;;;8.68;5.10;;;26.10;99.90;;;;;;4190011;28;20574;-59
2021/06/22 06:51:21;;;;;;;12.07;5.60;;;26.10;99.90;;;;;;4190423;28;20025;-58
2021/06/22 06:53:22;;;;;;;8.63;4.28;;;26.10;99.90;;;;;;4189513;28;20036;-60
2021/06/22 06:55:32;;;;;;;9.23;4.57;;;26.20;99.90;;;;;;4189527;28;20028;-59
2021/06/22 06:57:33;;;;;;;6.15;4.45;;;26.60;99.90;;;;;;4188846;28;20017;-60
2021/06/22 06:59:34;;;;;;;8.48;4.53;;;26.80;99.90;;;;;;4189074;28;20049;-59
2021/06/22 07:01:37;;;;;;;5.35;4.47;;;26.80;99.90;;;;;;4188444;28;20189;-59
2021/06/22 07:03:38;;;;;;;9.77;4.22;;;27.00;99.90;;;;;;4189370;28;20033;-59
2021/06/22 07:05:40;;;;;;;6.32;4.40;;;27.20;99.90;;;;;;4188940;28;20198;-59
2021/06/22 07:07:41;;;;;;;6.65;3.65;;;27.30;99.90;;;;;;4189727;28;20094;-59
2021/06/22 07:09:42;;;;;;;6.30;3.47;;;27.40;99.90;;;;;;4189254;28;20437;-59
2021/06/22 07:11:43;;;;;;;8.20;3.92;;;27.60;99.90;;;;;;4189611;28;20036;-59
2021/06/22 07:13:44;;;;;;;11.40;4.80;;;27.80;99.90;;;;;;4188737;28;20097;-59
2021/06/22 07:15:46;;;;;;;7.28;3.70;;;28.00;99.90;;;;;;4189653;28;20040;-59
2021/06/22 07:17:48;;;;;;;7.25;3.55;;;28.30;99.90;;;;;;4188749;28;20595;-59
2021/06/22 07:19:49;;;;;;;6.05;4.07;;;28.50;99.90;;;;;;4189366;28;20017;-60
2021/06/22 07:21:50;;;;;;;10.20;4.43;;;28.40;99.90;;;;;;4187876;28;20042;-60
2021/06/22 07:23:52;;;;;;;3.92;3.47;;;28.20;99.90;;;;;;4189370;28;20048;-59
2021/06/22 07:25:53;;;;;;;7.72;4.07;;;28.10;99.90;;;;;;4188766;28;20354;-59
2021/06/22 07:27:56;;;;;;;7.45;4.65;;;28.30;99.90;;;;;;4188703;28;20036;-59
2021/06/22 07:29:58;;;;;;;8.05;4.35;;;28.10;99.90;;;;;;4188697;28;20037;-59
2021/06/22 07:31:59;;;;;;;5.72;4.00;;;28.00;99.90;;;;;;4188919;28;20033;-60
2021/06/22 07:34:00;;;;;;;9.57;4.65;;;27.80;99.90;;;;;;4189020;28;20769;-60
2021/06/22 07:36:01;;;;;;;13.38;4.80;;;27.80;99.90;;;;;;4188358;28;20300;-60
2021/06/22 07:38:04;;;;;;;7.93;3.78;;;28.00;99.90;;;;;;4188289;28;20075;-59
2021/06/22 07:40:05;;;;;;;8.45;3.70;;;28.00;99.90;;;;;;4188400;28;20066;-59
2021/06/22 07:42:07;;;;;;;10.40;3.38;;;28.10;99.90;;;;;;4189100;28;20041;-59
2021/06/22 07:44:08;;;;;;;6.75;3.92;;;28.00;99.90;;;;;;4188162;28;20044;-59
2021/06/22 07:46:09;;;;;;;11.07;3.40;;;27.90;99.90;;;;;;4189195;28;20044;-59
2021/06/22 07:48:11;;;;;;;9.15;4.10;;;28.00;99.90;;;;;;4188313;28;20475;-60
2021/06/22 07:50:14;;;;;;;6.13;3.67;;;28.30;99.90;;;;;;4189307;28;20044;-59
2021/06/22 07:52:15;;;;;;;7.22;2.97;;;28.90;99.90;;;;;;4188716;28;20090;-59
2021/06/22 07:54:16;;;;;;;7.38;3.03;;;29.10;99.90;;;;;;4188971;28;20021;-59
2021/06/22 07:56:18;;;;;;;5.10;2.90;;;29.40;99.90;;;;;;4188270;28;20568;-59
2021/06/22 07:58:19;;;;;;;7.95;3.03;;;29.60;99.90;;;;;;4188899;28;20012;-59
2021/06/22 08:00:50;;;;;;;7.07;3.42;;;29.90;99.90;;;;;;4188905;28;20028;-59
2021/06/22 08:02:52;;;;;;;11.95;3.70;;;29.70;99.90;;;;;;4182765;28;20070;-59
2021/06/22 08:04:54;;;;;;;10.80;3.67;;;29.40;99.90;;;;;;4188844;28;20021;-59
2021/06/22 08:06:55;;;;;;;4.63;3.30;;;29.10;99.90;;;;;;4188820;28;20017;-59
2021/06/22 08:08:56;;;;;;;7.40;3.53;;;28.70;99.90;;;;;;4188468;28;20105;-59
2021/06/22 08:10:58;;;;;;;6.70;3.33;;;28.70;99.90;;;;;;4188595;28;20033;-60
2021/06/22 08:12:59;;;;;;;5.97;2.95;;;28.80;99.90;;;;;;4188650;28;20029;-60
2021/06/22 08:15:00;;;;;;;11.48;3.35;;;29.10;99.90;;;;;;4187941;28;20037;-60
2021/06/22 08:17:02;;;;;;;6.65;3.45;;;29.10;99.90;;;;;;4188625;28;20020;-60
2021/06/22 08:19:03;;;;;;;6.70;3.70;;;29.20;99.90;;;;;;4187573;28;20040;-60
2021/06/22 08:21:05;;;;;;;3.85;2.95;;;29.10;99.90;;;;;;4189651;28;20538;-59
2021/06/22 08:23:07;;;;;;;7.93;3.90;;;29.20;99.90;;;;;;4186390;28;20475;-59
2021/06/22 08:25:09;;;;;;;5.05;3.30;;;29.10;99.90;;;;;;4189202;28;20471;-59
2021/06/22 08:27:10;;;;;;;6.57;3.17;;;28.90;99.90;;;;;;4187395;28;20040;-59
2021/06/22 08:29:12;;;;;;;8.43;3.25;;;28.80;99.90;;;;;;4189006;28;20046;-60
2021/06/22 08:31:14;;;;;;;8.20;4.30;;;28.70;99.90;;;;;;4188406;28;20447;-59
2021/06/22 08:33:15;;;;;;;9.88;3.33;;;28.90;99.90;;;;;;4188386;28;20515;-59
2021/06/22 08:35:16;;;;;;;10.23;4.32;;;29.00;99.90;;;;;;4188013;28;20477;-59
2021/06/22 08:37:18;;;;;;;7.10;3.35;;;29.10;99.90;;;;;;4188528;28;20086;-59
2021/06/22 08:39:19;;;;;;;7.20;3.13;;;29.10;99.90;;;;;;4188124;28;20603;-60
2021/06/22 08:41:22;;;;;;;9.18;3.10;;;29.10;99.90;;;;;;4188364;28;20037;-60
2021/06/22 08:43:23;;;;;;;5.95;3.30;;;29.00;99.90;;;;;;4188333;28;20114;-59
2021/06/22 08:45:25;;;;;;;7.15;3.53;;;28.90;99.90;;;;;;4188359;28;20493;-59
2021/06/22 08:47:27;;;;;;;7.57;3.95;;;28.80;99.90;;;;;;4188684;28;20055;-59
2021/06/22 08:49:32;;;;;;;5.75;3.00;;;28.70;99.90;;;;;;4189018;28;21587;-60
2021/06/22 08:51:35;;;;;;;5.00;3.22;;;28.60;99.90;;;;;;4191892;28;20090;-60
2021/06/22 08:53:36;;;;;;;7.93;2.80;;;28.70;99.90;;;;;;4190915;28;20016;-60
2021/06/22 08:55:37;;;;;;;7.72;3.00;;;28.50;99.90;;;;;;4191822;28;20485;-60
2021/06/22 08:57:38;;;;;;;7.18;2.67;;;28.50;99.90;;;;;;4190789;28;20109;-59
2021/06/22 08:59:44;;;;;;;4.97;3.08;;;28.50;99.90;;;;;;4191724;28;20024;-59
2021/06/22 09:01:45;;;;;;;7.75;3.00;;;28.50;99.90;;;;;;4190895;28;20036;-60
2021/06/22 09:03:49;;;;;;;5.03;3.05;;;28.40;99.90;;;;;;4191202;28;20098;-60
2021/06/22 09:05:56;;;;;;;5.13;3.40;;;28.50;99.90;;;;;;4191785;28;20086;-60
2021/06/22 09:07:57;;;;;;;8.07;2.95;;;28.70;99.90;;;;;;4191061;28;20036;-60
2021/06/22 09:09:58;;;;;;;8.57;3.35;;;28.80;99.90;;;;;;4190519;28;20049;-61
2021/06/22 09:12:10;;;;;;;7.82;2.78;;;28.80;99.90;;;;;;4190723;28;20542;-60
2021/06/22 09:14:13;;;;;;;6.25;3.38;;;28.90;99.90;;;;;;4190588;28;20098;-59
2021/06/22 09:16:17;;;;;;;7.32;3.80;;;29.00;99.90;;;;;;4190943;28;20070;-60
2021/06/22 09:18:28;;;;;;;7.90;2.95;;;29.00;99.90;;;;;;4190906;28;20570;-60
2021/06/22 09:20:41;;;;;;;5.32;3.58;;;29.00;99.90;;;;;;4191032;28;20050;-60
2021/06/22 09:22:42;;;;;;;8.90;2.83;;;29.10;99.90;;;;;;4189684;28;20045;-60
2021/06/22 09:25:09;;;;;;;4.45;3.35;;;29.20;99.90;;;;;;4190626;28;20032;-61
2021/06/22 09:27:10;;;;;;;5.47;3.08;;;29.10;99.90;;;;;;4190465;28;20044;-60
2021/06/22 09:29:14;;;;;;;7.88;2.85;;;29.10;99.90;;;;;;4190402;28;20044;-60
2021/06/22 09:31:24;;;;;;;4.55;2.47;;;29.20;99.90;;;;;;4191024;28;20032;-60
2021/06/22 09:33:38;;;;;;;9.20;2.63;;;29.30;97.90;;;;;;4190689;28;20106;-60
2021/06/22 09:35:39;;;;;;;4.47;2.50;;;29.40;98.40;;;;;;4189922;28;20086;-59
2021/06/22 09:37:53;;;;;;;7.93;2.80;;;29.50;97.90;;;;;;4189773;28;20546;-60
2021/06/22 09:39:54;;;;;;;4.78;2.65;;;29.50;97.10;;;;;;4190051;28;20102;-61
2021/06/22 09:41:57;;;;;;;10.55;3.00;;;29.60;97.80;;;;;;4189790;28;20025;-57
2021/06/22 09:44:07;;;;;;;5.97;2.80;;;29.60;98.10;;;;;;4190612;28;20032;-60
2021/06/22 09:46:09;;;;;;;6.13;2.50;;;29.80;98.20;;;;;;4190077;28;20030;-60
2021/06/22 09:48:10;;;;;;;8.15;2.42;;;29.90;97.50;;;;;;4190059;28;20036;-59
2021/06/22 09:50:33;;;;;;;5.10;2.40;;;30.00;96.80;;;;;;4189996;28;20037;-60
2021/06/22 09:52:34;;;;;;;9.85;3.13;;;30.00;95.20;;;;;;4190595;28;20044;-59
2021/06/22 09:54:48;;;;;;;5.82;2.47;;;30.00;96.40;;;;;;4188652;28;20090;-60
2021/06/22 09:56:59;;;;;;;6.85;2.55;;;30.00;95.70;;;;;;4190195;28;20024;-60
2021/06/22 09:59:07;;;;;;;3.35;2.60;;;30.00;95.70;;;;;;4190006;28;20427;-60
2021/06/22 10:01:24;;;;;;;8.00;3.05;;;30.20;95.90;;;;;;4189166;28;20129;-60
2021/06/22 10:03:39;;;;;;;3.55;2.45;;;30.10;96.00;;;;;;4190185;28;20090;-60
2021/06/22 10:05:52;;;;;;;5.13;2.55;;;30.00;94.60;;;;;;4190738;28;20044;-61
2021/06/22 10:08:03;;;;;;;7.13;2.67;;;29.90;94.20;;;;;;4190039;28;20025;-61
2021/06/22 10:10:05;;;;;;;2.90;2.40;;;29.90;93.80;;;;;;4190143;28;20102;-60
2021/06/22 10:12:08;;;;;;;8.45;2.50;;;29.90;94.50;;;;;;4190180;28;20385;-60
2021/06/22 10:14:21;;;;;;;8.25;2.85;;;29.90;95.00;;;;;;4190176;28;20029;-61
2021/06/22 10:16:24;;;;;;;3.13;2.53;;;29.80;94.80;;;;;;4190445;28;20550;-61
2021/06/22 10:18:26;;;;;;;4.75;2.60;;;29.70;94.60;;;;;;4190659;28;20089;-60
2021/06/22 10:20:27;;;;;;;8.68;2.67;;;29.70;94.90;;;;;;4189437;28;20028;-60
2021/06/22 10:22:32;;;;;;;4.47;2.42;;;29.70;95.00;;;;;;4190129;28;20094;-60
2021/06/22 10:24:38;;;;;;;7.32;2.42;;;29.70;94.60;;;;;;4189566;28;20040;-60
2021/06/22 10:26:40;;;;;;;4.30;2.45;;;29.60;93.70;;;;;;4190101;28;20059;-60
2021/06/22 10:28:44;;;;;;;7.78;2.65;;;29.50;93.90;;;;;;4189515;28;20044;-60
2021/06/22 10:30:45;;;;;;;3.67;2.35;;;29.60;93.80;;;;;;4190500;28;20098;-60
2021/06/22 10:32:47;;;;;;;7.20;2.58;;;29.60;93.70;;;;;;4189134;28;20678;-60
2021/06/22 10:34:56;;;;;;;5.30;2.45;;;29.70;93.50;;;;;;4190438;28;20447;-61